sensor_id;sensor_type;location;lat;lon;timestamp;P1;durP1;ratioP1;P2;durP2;ratioP2
50651;SDS011;61429;52.086;5.240;2022-11-30T15:51:35;32.1;;;22.7;;
50651;SDS011;61429;52.086;5.240;2022-11-30T15:53:23;31.0;;;23.1;;
50651;SDS011;61429;52.086;5.240;2022-11-30T15:55:05;27.8;;;21.1;;
50651;SDS011;61429;52.086;5.240;2022-11-30T15:57:14;29.7;;;22.3;;
50651;SDS011;61429;52.086;5.240;2022-11-30T16:00:39;31.6;;;22.7;;
50651;SDS011;61429;52.086;5.240;2022-11-30T16:02:23;29.5;;;21.9;;
50651;SDS011;61429;52.086;5.240;2022-11-30T16:04:03;27.8;;;21.5;;
50651;SDS011;61429;52.086;5.240;2022-11-30T16:05:40;40.9;;;26.6;;
50651;SDS011;61429;52.086;5.240;2022-11-30T16:09:16;30.9;;;22.9;;
50651;SDS011;61429;52.086;5.240;2022-11-30T16:10:55;28.8;;;22.2;;
50651;SDS011;61429;52.086;5.240;2022-11-30T16:12:31;30.7;;;23.3;;
50651;SDS011;61429;52.086;5.240;2022-11-30T16:14:08;29.8;;;23.1;;
50651;SDS011;61429;52.086;5.240;2022-11-30T16:17:27;29.1;;;23.4;;
50651;SDS011;61429;52.086;5.240;2022-11-30T16:19:03;35.0;;;26.6;;
50651;SDS011;61429;52.086;5.240;2022-11-30T16:20:40;36.71;;;26.4;;
50651;SDS011;61429;52.086;5.240;2022-11-30T16:22:17;32.1;;;23.8;;
50651;SDS011;61429;52.086;5.240;2022-11-30T16:25:29;27.9;;;21.4;;
50651;SDS011;61429;52.086;5.240;2022-11-30T16:27:09;28.3;;;21.5;;
50651;SDS011;61429;52.086;5.240;2022-11-30T16:28:49;29.0;;;21.9;;
50651;SDS011;61429;52.086;5.240;2022-11-30T16:32:07;29.9;;;22.3;;
50651;SDS011;61429;52.086;5.240;2022-11-30T16:33:45;28.9;;;22.6;;
50651;SDS011;61429;52.086;5.240;2022-11-30T16:35:26;32.21;;;25.1;;
50651;SDS011;61429;52.086;5.240;2022-11-30T16:37:09;32.4;;;24.7;;
50651;SDS011;61429;52.086;5.240;2022-11-30T16:40:25;30.5;;;23.5;;
50651;SDS011;61429;52.086;5.240;2022-11-30T16:42:01;32.5;;;23.8;;
50651;SDS011;61429;52.086;5.240;2022-11-30T16:43:37;29.0;;;22.9;;
50651;SDS011;61429;52.086;5.240;2022-11-30T16:45:15;32.6;;;23.4;;
50651;SDS011;61429;52.086;5.240;2022-11-30T16:48:34;31.8;;;23.8;;
50651;SDS011;61429;52.086;5.240;2022-11-30T16:50:11;31.5;;;23.6;;
50651;SDS011;61429;52.086;5.240;2022-11-30T16:51:48;31.5;;;24.2;;
50651;SDS011;61429;52.086;5.240;2022-11-30T16:55:01;31.6;;;23.9;;
50651;SDS011;61429;52.086;5.240;2022-11-30T16:56:37;33.6;;;24.9;;
50651;SDS011;61429;52.086;5.240;2022-11-30T16:58:13;31.0;;;23.5;;
50651;SDS011;61429;52.086;5.240;2022-11-30T17:01:27;32.0;;;24.2;;
50651;SDS011;61429;52.086;5.240;2022-11-30T17:03:08;34.71;;;25.6;;
50651;SDS011;61429;52.086;5.240;2022-11-30T17:04:56;35.0;;;26.0;;
50651;SDS011;61429;52.086;5.240;2022-11-30T17:06:32;34.1;;;25.3;;
50651;SDS011;61429;52.086;5.240;2022-11-30T17:09:45;40.0;;;29.9;;
50651;SDS011;61429;52.086;5.240;2022-11-30T17:11:22;36.0;;;28.3;;
50651;SDS011;61429;52.086;5.240;2022-11-30T17:13:08;35.31;;;26.9;;
50651;SDS011;61429;52.086;5.240;2022-11-30T17:14:48;31.1;;;24.6;;
50651;SDS011;61429;52.086;5.240;2022-11-30T17:18:01;35.4;;;26.4;;
50651;SDS011;61429;52.086;5.240;2022-11-30T17:19:37;33.6;;;25.1;;
50651;SDS011;61429;52.086;5.240;2022-11-30T17:21:15;30.7;;;23.4;;
50651;SDS011;61429;52.086;5.240;2022-11-30T17:22:55;35.21;;;25.7;;
50651;SDS011;61429;52.086;5.240;2022-11-30T17:26:08;32.9;;;25.8;;
50651;SDS011;61429;52.086;5.240;2022-11-30T17:27:45;35.5;;;26.2;;
50651;SDS011;61429;52.086;5.240;2022-11-30T17:29:22;36.0;;;26.1;;
50651;SDS011;61429;52.086;5.240;2022-11-30T17:32:34;34.4;;;25.4;;
50651;SDS011;61429;52.086;5.240;2022-11-30T17:34:11;38.9;;;27.5;;
50651;SDS011;61429;52.086;5.240;2022-11-30T17:35:48;36.71;;;26.8;;
50651;SDS011;61429;52.086;5.240;2022-11-30T17:39:02;38.9;;;27.2;;
50651;SDS011;61429;52.086;5.240;2022-11-30T17:40:41;36.4;;;27.5;;
50651;SDS011;61429;52.086;5.240;2022-11-30T17:42:17;38.6;;;28.4;;
50651;SDS011;61429;52.086;5.240;2022-11-30T17:43:55;33.5;;;25.6;;
50651;SDS011;61429;52.086;5.240;2022-11-30T17:47:07;32.1;;;24.8;;
50651;SDS011;61429;52.086;5.240;2022-11-30T17:48:44;32.21;;;24.9;;
50651;SDS011;61429;52.086;5.240;2022-11-30T17:50:21;35.31;;;26.6;;
50651;SDS011;61429;52.086;5.240;2022-11-30T17:53:35;38.31;;;28.1;;
50651;SDS011;61429;52.086;5.240;2022-11-30T17:55:12;37.71;;;27.6;;
50651;SDS011;61429;52.086;5.240;2022-11-30T17:56:48;38.21;;;28.2;;
50651;SDS011;61429;52.086;5.240;2022-11-30T18:00:01;40.31;;;29.3;;
50651;SDS011;61429;52.086;5.240;2022-11-30T18:01:39;40.5;;;28.7;;
50651;SDS011;61429;52.086;5.240;2022-11-30T18:03:15;42.0;;;30.7;;
50651;SDS011;61429;52.086;5.240;2022-11-30T18:04:51;48.3;;;33.9;;
50651;SDS011;61429;52.086;5.240;2022-11-30T18:08:04;42.5;;;32.0;;
50651;SDS011;61429;52.086;5.240;2022-11-30T18:09:40;39.71;;;29.5;;
50651;SDS011;61429;52.086;5.240;2022-11-30T18:11:17;38.81;;;29.6;;
50651;SDS011;61429;52.086;5.240;2022-11-30T18:14:30;43.3;;;30.5;;
50651;SDS011;61429;52.086;5.240;2022-11-30T18:16:08;39.1;;;29.2;;
50651;SDS011;61429;52.086;5.240;2022-11-30T18:17:47;39.6;;;29.1;;
50651;SDS011;61429;52.086;5.240;2022-11-30T18:19:23;43.6;;;30.3;;
50651;SDS011;61429;52.086;5.240;2022-11-30T18:22:38;39.0;;;27.8;;
50651;SDS011;61429;52.086;5.240;2022-11-30T18:24:14;39.9;;;29.4;;
50651;SDS011;61429;52.086;5.240;2022-11-30T18:25:50;41.7;;;30.9;;
50651;SDS011;61429;52.086;5.240;2022-11-30T18:29:05;47.9;;;33.1;;
50651;SDS011;61429;52.086;5.240;2022-11-30T18:30:42;46.0;;;32.9;;
50651;SDS011;61429;52.086;5.240;2022-11-30T18:32:18;47.9;;;33.3;;
50651;SDS011;61429;52.086;5.240;2022-11-30T18:35:32;37.0;;;28.3;;
50651;SDS011;61429;52.086;5.240;2022-11-30T18:37:08;40.9;;;29.6;;
50651;SDS011;61429;52.086;5.240;2022-11-30T18:38:45;41.4;;;30.3;;
50651;SDS011;61429;52.086;5.240;2022-11-30T18:40:21;41.5;;;30.4;;
50651;SDS011;61429;52.086;5.240;2022-11-30T18:43:33;38.71;;;28.6;;
50651;SDS011;61429;52.086;5.240;2022-11-30T18:45:09;41.8;;;29.4;;
50651;SDS011;61429;52.086;5.240;2022-11-30T18:46:45;40.4;;;29.3;;
50651;SDS011;61429;52.086;5.240;2022-11-30T18:49:58;43.9;;;30.8;;
50651;SDS011;61429;52.086;5.240;2022-11-30T18:51:34;44.0;;;30.7;;
50651;SDS011;61429;52.086;5.240;2022-11-30T18:53:11;42.6;;;30.0;;
50651;SDS011;61429;52.086;5.240;2022-11-30T18:56:25;46.8;;;31.2;;
50651;SDS011;61429;52.086;5.240;2022-11-30T18:58:03;45.7;;;31.6;;
50651;SDS011;61429;52.086;5.240;2022-11-30T18:59:39;43.6;;;30.8;;
50651;SDS011;61429;52.086;5.240;2022-11-30T19:01:16;45.1;;;32.1;;
50651;SDS011;61429;52.086;5.240;2022-11-30T19:04:31;47.2;;;33.4;;
50651;SDS011;61429;52.086;5.240;2022-11-30T19:06:07;52.5;;;35.81;;
50651;SDS011;61429;52.086;5.240;2022-11-30T19:07:45;53.0;;;37.21;;
50651;SDS011;61429;52.086;5.240;2022-11-30T19:11:00;53.6;;;37.4;;
50651;SDS011;61429;52.086;5.240;2022-11-30T19:12:37;47.0;;;34.71;;
50651;SDS011;61429;52.086;5.240;2022-11-30T19:14:14;48.8;;;34.71;;
50651;SDS011;61429;52.086;5.240;2022-11-30T19:15:52;44.5;;;32.3;;
50651;SDS011;61429;52.086;5.240;2022-11-30T19:19:05;44.5;;;32.8;;
50651;SDS011;61429;52.086;5.240;2022-11-30T19:20:45;43.1;;;32.1;;
50651;SDS011;61429;52.086;5.240;2022-11-30T19:22:21;45.0;;;32.1;;
50651;SDS011;61429;52.086;5.240;2022-11-30T19:25:36;43.3;;;31.0;;
50651;SDS011;61429;52.086;5.240;2022-11-30T19:27:12;45.0;;;32.1;;
50651;SDS011;61429;52.086;5.240;2022-11-30T19:28:48;48.4;;;33.8;;
50651;SDS011;61429;52.086;5.240;2022-11-30T19:32:01;46.8;;;32.5;;
50651;SDS011;61429;52.086;5.240;2022-11-30T19:33:39;49.3;;;33.6;;
50651;SDS011;61429;52.086;5.240;2022-11-30T19:35:16;43.4;;;31.0;;
50651;SDS011;61429;52.086;5.240;2022-11-30T19:36:53;45.7;;;33.21;;
50651;SDS011;61429;52.086;5.240;2022-11-30T19:40:06;45.7;;;33.21;;
50651;SDS011;61429;52.086;5.240;2022-11-30T19:41:43;46.9;;;33.21;;
50651;SDS011;61429;52.086;5.240;2022-11-30T19:43:19;44.5;;;33.4;;
50651;SDS011;61429;52.086;5.240;2022-11-30T19:46:33;46.0;;;33.21;;
50651;SDS011;61429;52.086;5.240;2022-11-30T19:48:09;43.3;;;30.6;;
50651;SDS011;61429;52.086;5.240;2022-11-30T19:49:45;45.9;;;32.3;;
50651;SDS011;61429;52.086;5.240;2022-11-30T19:52:57;45.9;;;32.3;;
50651;SDS011;61429;52.086;5.240;2022-11-30T19:54:33;48.8;;;34.1;;
50651;SDS011;61429;52.086;5.240;2022-11-30T19:56:11;47.9;;;34.4;;
50651;SDS011;61429;52.086;5.240;2022-11-30T19:57:49;50.5;;;36.5;;
50651;SDS011;61429;52.086;5.240;2022-11-30T20:01:01;46.3;;;34.71;;
50651;SDS011;61429;52.086;5.240;2022-11-30T20:02:38;45.6;;;34.0;;
50651;SDS011;61429;52.086;5.240;2022-11-30T20:04:15;45.6;;;33.3;;
50651;SDS011;61429;52.086;5.240;2022-11-30T20:07:28;48.2;;;33.1;;
50651;SDS011;61429;52.086;5.240;2022-11-30T20:09:05;46.6;;;32.8;;
50651;SDS011;61429;52.086;5.240;2022-11-30T20:10:43;50.2;;;33.8;;
50651;SDS011;61429;52.086;5.240;2022-11-30T20:12:20;47.9;;;34.71;;
50651;SDS011;61429;52.086;5.240;2022-11-30T20:15:35;48.5;;;33.9;;
50651;SDS011;61429;52.086;5.240;2022-11-30T20:17:12;49.4;;;34.31;;
50651;SDS011;61429;52.086;5.240;2022-11-30T20:18:50;46.1;;;32.6;;
50651;SDS011;61429;52.086;5.240;2022-11-30T20:22:08;45.9;;;33.4;;
50651;SDS011;61429;52.086;5.240;2022-11-30T20:23:45;47.0;;;33.6;;
50651;SDS011;61429;52.086;5.240;2022-11-30T20:25:24;45.3;;;32.71;;
50651;SDS011;61429;52.086;5.240;2022-11-30T20:27:00;45.8;;;33.21;;
50651;SDS011;61429;52.086;5.240;2022-11-30T20:30:16;49.0;;;34.1;;
50651;SDS011;61429;52.086;5.240;2022-11-30T20:31:53;49.6;;;34.81;;
50651;SDS011;61429;52.086;5.240;2022-11-30T20:33:29;46.1;;;33.8;;
50651;SDS011;61429;52.086;5.240;2022-11-30T20:36:44;51.7;;;35.21;;
50651;SDS011;61429;52.086;5.240;2022-11-30T20:38:21;42.0;;;32.0;;
50651;SDS011;61429;52.086;5.240;2022-11-30T20:39:57;43.3;;;32.4;;
50651;SDS011;61429;52.086;5.240;2022-11-30T20:43:09;44.4;;;32.71;;
50651;SDS011;61429;52.086;5.240;2022-11-30T20:44:47;50.5;;;35.21;;
50651;SDS011;61429;52.086;5.240;2022-11-30T20:46:24;47.1;;;34.6;;
50651;SDS011;61429;52.086;5.240;2022-11-30T20:48:02;49.1;;;35.21;;
50651;SDS011;61429;52.086;5.240;2022-11-30T20:51:15;54.9;;;36.4;;
50651;SDS011;61429;52.086;5.240;2022-11-30T20:52:54;47.4;;;33.5;;
50651;SDS011;61429;52.086;5.240;2022-11-30T20:54:30;50.9;;;36.21;;
50651;SDS011;61429;52.086;5.240;2022-11-30T20:57:44;57.3;;;39.6;;
50651;SDS011;61429;52.086;5.240;2022-11-30T20:59:25;51.1;;;37.0;;
50651;SDS011;61429;52.086;5.240;2022-11-30T21:01:07;57.1;;;38.71;;
50651;SDS011;61429;52.086;5.240;2022-11-30T21:02:45;54.0;;;36.71;;
50651;SDS011;61429;52.086;5.240;2022-11-30T21:05:59;57.6;;;39.31;;
50651;SDS011;61429;52.086;5.240;2022-11-30T21:07:35;58.4;;;39.31;;
50651;SDS011;61429;52.086;5.240;2022-11-30T21:09:11;61.4;;;40.0;;
50651;SDS011;61429;52.086;5.240;2022-11-30T21:12:24;52.0;;;35.0;;
50651;SDS011;61429;52.086;5.240;2022-11-30T21:14:00;47.5;;;33.21;;
50651;SDS011;61429;52.086;5.240;2022-11-30T21:15:37;47.2;;;34.5;;
50651;SDS011;61429;52.086;5.240;2022-11-30T21:17:13;47.7;;;34.1;;
50651;SDS011;61429;52.086;5.240;2022-11-30T21:20:26;44.9;;;32.8;;
50651;SDS011;61429;52.086;5.240;2022-11-30T21:22:03;48.5;;;34.71;;
50651;SDS011;61429;52.086;5.240;2022-11-30T21:23:39;46.0;;;32.5;;
50651;SDS011;61429;52.086;5.240;2022-11-30T21:26:54;46.9;;;34.1;;
50651;SDS011;61429;52.086;5.240;2022-11-30T21:28:30;49.9;;;35.0;;
50651;SDS011;61429;52.086;5.240;2022-11-30T21:30:08;49.7;;;34.31;;
50651;SDS011;61429;52.086;5.240;2022-11-30T21:33:22;52.2;;;35.31;;
50651;SDS011;61429;52.086;5.240;2022-11-30T21:34:59;47.2;;;33.3;;
50651;SDS011;61429;52.086;5.240;2022-11-30T21:36:35;54.6;;;37.4;;
50651;SDS011;61429;52.086;5.240;2022-11-30T21:38:11;57.7;;;39.4;;
50651;SDS011;61429;52.086;5.240;2022-11-30T21:41:23;52.6;;;37.21;;
50651;SDS011;61429;52.086;5.240;2022-11-30T21:43:00;52.1;;;36.31;;
50651;SDS011;61429;52.086;5.240;2022-11-30T21:44:37;49.8;;;34.81;;
50651;SDS011;61429;52.086;5.240;2022-11-30T21:47:52;52.1;;;35.6;;
50651;SDS011;61429;52.086;5.240;2022-11-30T21:49:28;54.3;;;37.0;;
50651;SDS011;61429;52.086;5.240;2022-11-30T21:51:05;53.2;;;36.0;;
50651;SDS011;61429;52.086;5.240;2022-11-30T21:52:43;53.2;;;35.9;;
50651;SDS011;61429;52.086;5.240;2022-11-30T21:56:00;52.6;;;37.0;;
50651;SDS011;61429;52.086;5.240;2022-11-30T21:57:38;55.7;;;36.9;;
50651;SDS011;61429;52.086;5.240;2022-11-30T21:59:14;56.4;;;36.6;;
50651;SDS011;61429;52.086;5.240;2022-11-30T22:02:30;48.2;;;33.71;;
50651;SDS011;61429;52.086;5.240;2022-11-30T22:04:08;53.1;;;36.31;;
50651;SDS011;61429;52.086;5.240;2022-11-30T22:05:55;52.1;;;36.6;;
50651;SDS011;61429;52.086;5.240;2022-11-30T22:07:33;52.1;;;35.5;;
50651;SDS011;61429;52.086;5.240;2022-11-30T22:10:49;52.3;;;35.71;;
50651;SDS011;61429;52.086;5.240;2022-11-30T22:12:25;51.4;;;35.6;;
50651;SDS011;61429;52.086;5.240;2022-11-30T22:14:01;50.2;;;35.4;;
50651;SDS011;61429;52.086;5.240;2022-11-30T22:17:14;52.7;;;34.4;;
50651;SDS011;61429;52.086;5.240;2022-11-30T22:18:51;55.5;;;36.6;;
50651;SDS011;61429;52.086;5.240;2022-11-30T22:20:29;53.2;;;35.71;;
50651;SDS011;61429;52.086;5.240;2022-11-30T22:22:05;52.9;;;35.6;;
50651;SDS011;61429;52.086;5.240;2022-11-30T22:25:20;50.4;;;34.9;;
50651;SDS011;61429;52.086;5.240;2022-11-30T22:26:56;58.0;;;39.0;;
50651;SDS011;61429;52.086;5.240;2022-11-30T22:28:33;60.4;;;39.31;;
50651;SDS011;61429;52.086;5.240;2022-11-30T22:31:46;54.0;;;36.0;;
50651;SDS011;61429;52.086;5.240;2022-11-30T22:33:25;64.41;;;42.3;;
50651;SDS011;61429;52.086;5.240;2022-11-30T22:35:01;49.5;;;34.71;;
50651;SDS011;61429;52.086;5.240;2022-11-30T22:38:17;53.1;;;35.5;;
50651;SDS011;61429;52.086;5.240;2022-11-30T22:39:52;55.0;;;36.81;;
50651;SDS011;61429;52.086;5.240;2022-11-30T22:41:29;52.8;;;36.4;;
50651;SDS011;61429;52.086;5.240;2022-11-30T22:43:06;55.7;;;37.31;;
50651;SDS011;61429;52.086;5.240;2022-11-30T22:46:19;51.4;;;35.6;;
50651;SDS011;61429;52.086;5.240;2022-11-30T22:47:57;53.2;;;35.71;;
50651;SDS011;61429;52.086;5.240;2022-11-30T22:49:34;55.5;;;36.31;;
50651;SDS011;61429;52.086;5.240;2022-11-30T22:52:48;59.0;;;37.5;;
50651;SDS011;61429;52.086;5.240;2022-11-30T22:54:24;54.9;;;37.0;;
50651;SDS011;61429;52.086;5.240;2022-11-30T22:56:01;50.9;;;34.6;;
50651;SDS011;61429;52.086;5.240;2022-11-30T22:57:38;61.7;;;39.0;;
50651;SDS011;61429;52.086;5.240;2022-11-30T23:00:51;63.4;;;40.1;;
50651;SDS011;61429;52.086;5.240;2022-11-30T23:02:28;68.7;;;43.4;;
50651;SDS011;61429;52.086;5.240;2022-11-30T23:04:05;57.7;;;38.5;;
50651;SDS011;61429;52.086;5.240;2022-11-30T23:07:19;71.11;;;44.3;;
